Time;durP1;ratioP1;P1;durP2;ratioP2;P2;SDS_P1;SDS_P2;PMS_P1;PMS_P2;Temp;Humidity;BMP_temperature;BMP_pressure;BME280_temperature;BME280_humidity;BME280_pressure;Samples;Min_cycle;Max_cycle;Signal;HPM_P1;HPM_P2
2023/09/12 00:00:37;;;;;;;;;;;19.10;99.90;;;;;;5143108;27;19930;-77
2023/09/12 00:03:03;;;;;;;;;;;19.10;99.90;;;;;;5133827;27;20008;-77
2023/09/12 00:05:28;;;;;;;;;;;19.10;99.90;;;;;;5142357;27;19919;-76
2023/09/12 00:07:54;;;;;;;;;;;19.10;99.90;;;;;;5142028;27;20051;-77
2023/09/12 00:10:20;;;;;;;;;;;19.10;99.90;;;;;;5122214;27;20385;-77
2023/09/12 00:12:45;;;;;;;;;;;19.10;99.90;;;;;;5142878;27;19923;-77
2023/09/12 00:15:14;;;;;;;;;;;19.00;99.90;;;;;;5145549;27;19919;-77
2023/09/12 00:17:39;;;;;;;;;;;19.00;99.90;;;;;;5146765;27;19923;-76
2023/09/12 00:20:07;;;;;;;;;;;19.00;99.90;;;;;;5146319;27;19962;-77
2023/09/12 00:22:32;;;;;;;;;;;19.00;99.90;;;;;;5143189;27;19931;-76
2023/09/12 00:24:58;;;;;;;;;;;19.00;99.90;;;;;;5123198;27;19923;-76
2023/09/12 00:27:23;;;;;;;;;;;19.00;99.90;;;;;;5136831;27;19937;-76
2023/09/12 00:29:49;;;;;;;;;;;19.00;99.90;;;;;;5140852;27;20358;-77
2023/09/12 00:32:15;;;;;;;;;;;19.00;99.90;;;;;;5133932;27;19927;-77
2023/09/12 00:34:40;;;;;;;;;;;18.90;99.90;;;;;;5146267;27;19956;-76
2023/09/12 00:37:06;;;;;;;;;;;18.90;99.90;;;;;;5140426;27;19919;-76
2023/09/12 00:39:31;;;;;;;;;;;18.90;99.90;;;;;;5135771;27;19923;-76
2023/09/12 00:41:57;;;;;;;;;;;18.90;99.90;;;;;;5147668;27;19929;-75
2023/09/12 00:44:22;;;;;;;;;;;18.90;99.90;;;;;;5124605;27;19994;-76
2023/09/12 00:46:49;;;;;;;;;;;18.80;99.90;;;;;;5131516;27;19919;-76
2023/09/12 00:49:15;;;;;;;;;;;18.80;99.90;;;;;;5136062;27;19937;-76
2023/09/12 00:51:42;;;;;;;;;;;18.80;99.90;;;;;;5143249;27;20002;-76
2023/09/12 00:54:07;;;;;;;;;;;18.80;99.90;;;;;;5145636;27;19970;-76
2023/09/12 00:56:35;;;;;;;;;;;18.80;99.90;;;;;;5110208;27;19969;-76
2023/09/12 00:59:01;;;;;;;;;;;18.80;99.90;;;;;;5142487;27;20333;-76
2023/09/12 01:01:27;;;;;;;;;;;18.70;99.90;;;;;;5142423;27;19934;-77
2023/09/12 01:03:54;;;;;;;;;;;18.70;99.90;;;;;;5142343;27;19923;-77
2023/09/12 01:06:21;;;;;;;;;;;18.70;99.90;;;;;;5145778;27;19964;-76
2023/09/12 01:08:47;;;;;;;;;;;18.70;99.90;;;;;;5137820;27;20022;-76
2023/09/12 01:11:13;;;;;;;;;;;18.70;99.90;;;;;;5141282;27;20406;-76
2023/09/12 01:13:39;;;;;;;;;;;18.70;99.90;;;;;;5142071;27;19926;-76
2023/09/12 01:16:04;;;;;;;;;;;18.70;99.90;;;;;;5142505;27;19919;-76
2023/09/12 01:18:30;;;;;;;;;;;18.70;99.90;;;;;;5140770;27;19966;-77
2023/09/12 01:21:15;;;;;;;;;;;18.70;99.90;;;;;;5148092;27;19930;-76
2023/09/12 01:23:44;;;;;;;;;;;18.70;99.90;;;;;;5125097;27;19927;-76
2023/09/12 01:26:28;;;;;;;;;;;18.70;99.90;;;;;;5141822;27;19975;-76
2023/09/12 01:28:55;;;;;;;;;;;18.70;99.90;;;;;;5125055;27;19919;-77
2023/09/12 01:31:22;;;;;;;;;;;18.70;99.90;;;;;;5133367;27;20334;-76
2023/09/12 01:33:47;;;;;;;;;;;18.60;99.90;;;;;;5137332;27;20285;-76
2023/09/12 01:36:15;;;;;;;;;;;18.60;99.90;;;;;;5140853;27;19968;-76
2023/09/12 01:38:41;;;;;;;;;;;18.60;99.90;;;;;;5142273;27;20281;-77
2023/09/12 01:41:07;;;;;;;;;;;18.50;99.90;;;;;;5146361;27;19926;-77
2023/09/12 01:43:33;;;;;;;;;;;18.40;99.90;;;;;;5144419;27;20409;-76
2023/09/12 01:46:00;;;;;;;;;;;18.40;99.90;;;;;;5137459;27;19923;-76
2023/09/12 01:48:30;;;;;;;;;;;18.40;99.90;;;;;;5139941;27;19919;-76
2023/09/12 01:50:56;;;;;;;;;;;18.40;99.90;;;;;;5124481;27;19942;-76
2023/09/12 01:53:21;;;;;;;;;;;18.30;99.90;;;;;;5142084;27;20006;-76
2023/09/12 01:55:48;;;;;;;;;;;18.30;99.90;;;;;;5147025;27;19986;-75
2023/09/12 01:58:15;;;;;;;;;;;18.30;99.90;;;;;;5150533;27;19919;-75
2023/09/12 02:00:41;;;;;;;;;;;18.20;99.90;;;;;;5132917;27;20018;-76
2023/09/12 02:03:06;;;;;;;;;;;18.20;99.90;;;;;;5147423;27;19927;-75
2023/09/12 02:05:32;;;;;;;;;;;18.20;99.90;;;;;;5149221;27;19944;-75
2023/09/12 02:08:01;;;;;;;;;;;18.20;99.90;;;;;;5145586;27;19976;-75
2023/09/12 02:10:27;;;;;;;;;;;18.10;99.90;;;;;;5141141;27;19928;-75
2023/09/12 02:12:52;;;;;;;;;;;18.10;99.90;;;;;;5140870;27;19966;-75
2023/09/12 02:15:18;;;;;;;;;;;18.10;99.90;;;;;;5144447;27;19922;-76
2023/09/12 02:17:44;;;;;;;;;;;18.00;99.90;;;;;;5120468;27;19924;-76
2023/09/12 02:20:09;;;;;;;;;;;18.00;99.90;;;;;;5150602;27;19918;-76
2023/09/12 02:22:35;;;;;;;;;;;17.90;99.90;;;;;;5150680;27;19931;-75
2023/09/12 02:25:02;;;;;;;;;;;17.90;99.90;;;;;;5140614;27;19919;-76
2023/09/12 02:27:27;;;;;;;;;;;17.80;99.90;;;;;;5125080;27;19998;-76
2023/09/12 02:29:53;;;;;;;;;;;17.80;99.90;;;;;;5137887;27;20111;-75
2023/09/12 02:32:19;;;;;;;;;;;17.70;99.90;;;;;;5139826;27;19937;-75
2023/09/12 02:34:44;;;;;;;;;;;17.70;99.90;;;;;;5140252;27;19927;-76
2023/09/12 02:37:10;;;;;;;;;;;17.60;99.90;;;;;;5140472;27;20349;-76
2023/09/12 02:39:35;;;;;;;;;;;17.60;99.90;;;;;;5142282;27;19923;-76
2023/09/12 02:42:02;;;;;;;;;;;17.60;99.90;;;;;;5138686;27;19953;-77
2023/09/12 02:44:28;;;;;;;;;;;17.30;99.90;;;;;;5122615;27;19919;-76
2023/09/12 02:46:53;;;;;;;;;;;17.60;99.90;;;;;;5143860;27;19923;-76
2023/09/12 02:49:19;;;;;;;;;;;17.50;99.90;;;;;;5149399;27;19923;-76
2023/09/12 02:51:45;;;;;;;;;;;17.50;99.90;;;;;;5122856;27;19923;-76
2023/09/12 02:54:10;;;;;;;;;;;17.50;99.90;;;;;;5139453;27;20037;-76
2023/09/12 02:56:36;;;;;;;;;;;17.60;99.90;;;;;;5121881;27;20017;-76
2023/09/12 02:59:02;;;;;;;;;;;17.50;99.90;;;;;;5123870;27;19919;-76
2023/09/12 03:01:28;;;;;;;;;;;17.60;99.90;;;;;;5143758;27;19918;-76
2023/09/12 03:03:54;;;;;;;;;;;17.60;99.90;;;;;;5141930;27;19929;-76
2023/09/12 03:06:19;;;;;;;;;;;17.60;99.90;;;;;;5138539;27;19916;-76
2023/09/12 03:08:45;;;;;;;;;;;17.60;99.90;;;;;;5147831;27;19927;-76
2023/09/12 03:11:10;;;;;;;;;;;17.60;99.90;;;;;;5137157;27;19931;-76
2023/09/12 03:13:36;;;;;;;;;;;17.60;99.90;;;;;;5142928;27;20013;-76
2023/09/12 03:16:02;;;;;;;;;;;17.50;99.90;;;;;;5141972;27;19919;-76
2023/09/12 03:18:28;;;;;;;;;;;17.50;99.90;;;;;;5144097;27;20314;-76
2023/09/12 03:20:53;;;;;;;;;;;17.40;99.90;;;;;;5136222;27;19919;-76
2023/09/12 03:23:19;;;;;;;;;;;17.40;99.90;;;;;;5142038;27;19971;-76
2023/09/12 03:25:44;;;;;;;;;;;17.40;99.90;;;;;;5139213;27;19962;-76
2023/09/12 03:28:10;;;;;;;;;;;17.30;99.90;;;;;;5112891;27;19945;-77
2023/09/12 03:30:36;;;;;;;;;;;17.40;99.90;;;;;;5136564;27;19939;-75
2023/09/12 03:33:02;;;;;;;;;;;17.40;99.90;;;;;;5138055;27;19923;-75
2023/09/12 03:35:33;;;;;;;;;;;17.40;99.90;;;;;;5141112;27;19971;-76
2023/09/12 03:37:59;;;;;;;;;;;17.50;99.90;;;;;;5119961;27;19922;-75
2023/09/12 03:40:25;;;;;;;;;;;17.50;99.90;;;;;;5115417;27;20014;-76
2023/09/12 03:42:51;;;;;;;;;;;17.50;99.90;;;;;;5141136;27;19991;-75
2023/09/12 03:45:16;;;;;;;;;;;17.70;99.90;;;;;;5120780;27;20014;-76
2023/09/12 03:47:46;;;;;;;;;;;17.70;99.90;;;;;;5145802;27;19922;-75
2023/09/12 03:50:12;;;;;;;;;;;17.70;99.90;;;;;;5142933;27;20005;-76
2023/09/12 03:52:38;;;;;;;;;;;17.70;99.90;;;;;;5144427;27;19919;-76
2023/09/12 03:55:04;;;;;;;;;;;18.30;99.90;;;;;;5146562;27;19926;-75
2023/09/12 03:57:29;;;;;;;;;;;17.60;99.90;;;;;;5139636;27;20434;-75
2023/09/12 03:59:55;;;;;;;;;;;17.60;99.90;;;;;;5151719;27;19949;-75
2023/09/12 04:02:20;;;;;;;;;;;18.10;99.90;;;;;;5124843;27;19932;-75
2023/09/12 04:04:46;;;;;;;;;;;17.40;99.90;;;;;;5143632;27;19943;-75
2023/09/12 04:07:12;;;;;;;;;;;17.40;99.90;;;;;;5127759;27;19919;-75
2023/09/12 04:09:38;;;;;;;;;;;17.30;99.90;;;;;;5147933;27;19920;-75
2023/09/12 04:12:04;;;;;;;;;;;17.30;99.90;;;;;;5145013;27;20312;-76
2023/09/12 04:14:29;;;;;;;;;;;17.20;99.90;;;;;;5143089;27;20017;-76
2023/09/12 04:16:55;;;;;;;;;;;17.20;99.90;;;;;;5143196;27;19968;-76
2023/09/12 04:19:20;;;;;;;;;;;17.10;99.90;;;;;;5145706;27;19927;-75
2023/09/12 04:21:46;;;;;;;;;;;17.10;99.90;;;;;;5147999;27;19927;-76
2023/09/12 04:24:11;;;;;;;;;;;17.00;99.90;;;;;;5134312;27;19923;-76
2023/09/12 04:26:37;;;;;;;;;;;17.00;99.90;;;;;;5124558;27;19927;-75
2023/09/12 04:29:03;;;;;;;;;;;17.00;99.90;;;;;;5143056;27;19926;-76
2023/09/12 04:31:28;;;;;;;;;;;17.00;99.90;;;;;;5133602;27;19919;-76
2023/09/12 04:33:54;;;;;;;;;;;17.00;99.90;;;;;;5108292;27;19925;-76
2023/09/12 04:36:20;;;;;;;;;;;17.00;99.90;;;;;;5145384;27;19923;-76
2023/09/12 04:38:46;;;;;;;;;;;17.00;99.90;;;;;;5142803;27;20392;-76
2023/09/12 04:41:14;;;;;;;;;;;17.00;99.90;;;;;;5128806;27;19923;-76
2023/09/12 04:43:40;;;;;;;;;;;17.00;99.90;;;;;;5124916;27;20017;-76
2023/09/12 04:46:06;;;;;;;;;;;17.00;99.90;;;;;;5142440;27;20018;-76
2023/09/12 04:48:32;;;;;;;;;;;17.00;99.90;;;;;;5130073;27;19923;-76
2023/09/12 04:50:57;;;;;;;;;;;17.10;99.90;;;;;;5141846;27;20013;-75
2023/09/12 04:53:23;;;;;;;;;;;17.00;99.90;;;;;;5106894;27;20380;-76
2023/09/12 04:55:49;;;;;;;;;;;17.10;99.90;;;;;;5144366;27;19977;-77
2023/09/12 04:58:14;;;;;;;;;;;17.10;99.90;;;;;;5143459;27;20280;-77
2023/09/12 05:00:40;;;;;;;;;;;17.00;99.90;;;;;;5145471;27;19927;-76
2023/09/12 05:03:06;;;;;;;;;;;17.10;99.90;;;;;;5141660;27;19975;-75
2023/09/12 05:05:34;;;;;;;;;;;17.10;99.90;;;;;;5141164;27;20440;-76
2023/09/12 05:07:59;;;;;;;;;;;17.00;99.90;;;;;;5141835;27;20010;-77
2023/09/12 05:10:25;;;;;;;;;;;17.10;99.90;;;;;;5122021;27;20064;-75
2023/09/12 05:12:50;;;;;;;;;;;17.00;99.90;;;;;;5140256;27;19933;-76
2023/09/12 05:15:16;;;;;;;;;;;17.10;99.90;;;;;;5105499;27;19931;-76
2023/09/12 05:17:42;;;;;;;;;;;17.10;99.90;;;;;;5141938;27;20464;-77
2023/09/12 05:20:07;;;;;;;;;;;17.10;99.90;;;;;;5142448;27;20009;-76
2023/09/12 05:22:33;;;;;;;;;;;17.10;99.90;;;;;;5145005;27;19930;-76
2023/09/12 05:24:59;;;;;;;;;;;17.00;99.90;;;;;;5152358;27;19923;-75
2023/09/12 05:27:24;;;;;;;;;;;17.00;99.90;;;;;;5141396;27;20373;-76
2023/09/12 05:29:50;;;;;;;;;;;17.00;99.90;;;;;;5104954;27;20322;-76
2023/09/12 05:32:16;;;;;;;;;;;17.00;99.90;;;;;;5148544;27;19930;-76
2023/09/12 05:34:42;;;;;;;;;;;17.00;99.90;;;;;;5141701;27;19920;-75
2023/09/12 05:37:07;;;;;;;;;;;17.00;99.90;;;;;;5140627;27;19976;-76
2023/09/12 05:39:33;;;;;;;;;;;16.90;99.90;;;;;;5142732;27;19965;-76
2023/09/12 05:41:58;;;;;;;;;;;16.90;99.90;;;;;;5140375;27;20390;-75
2023/09/12 05:44:24;;;;;;;;;;;16.90;99.90;;;;;;5125760;27;19923;-76
2023/09/12 05:46:49;;;;;;;;;;;16.90;99.90;;;;;;5132401;27;19923;-76
2023/09/12 05:49:15;;;;;;;;;;;16.90;99.90;;;;;;5140628;27;19919;-76
2023/09/12 05:51:41;;;;;;;;;;;17.00;99.90;;;;;;5124988;27;19963;-76
2023/09/12 05:54:07;;;;;;;;;;;17.10;99.90;;;;;;5140954;27;20009;-76
2023/09/12 05:56:33;;;;;;;;;;;17.10;99.90;;;;;;5141082;27;20467;-77
2023/09/12 05:58:59;;;;;;;;;;;17.10;99.90;;;;;;5143988;27;19961;-76
2023/09/12 06:01:25;;;;;;;;;;;17.10;99.90;;;;;;5125689;27;19954;-77
2023/09/12 06:03:50;;;;;;;;;;;17.20;99.90;;;;;;5143570;27;20277;-77
2023/09/12 06:06:16;;;;;;;;;;;17.20;99.90;;;;;;5121979;27;19970;-77
2023/09/12 06:08:41;;;;;;;;;;;17.30;99.90;;;;;;5128111;27;19936;-77
2023/09/12 06:11:07;;;;;;;;;;;17.30;99.90;;;;;;5137760;27;20014;-77
2023/09/12 06:13:35;;;;;;;;;;;17.40;99.90;;;;;;5143832;27;20058;-76
2023/09/12 06:16:01;;;;;;;;;;;17.40;99.90;;;;;;5136083;27;20326;-77
2023/09/12 06:18:28;;;;;;;;;;;17.50;99.90;;;;;;5144092;27;20005;-77
2023/09/12 06:20:54;;;;;;;;;;;17.40;99.90;;;;;;5137027;27;19972;-77
2023/09/12 06:23:20;;;;;;;;;;;17.50;99.90;;;;;;5142673;27;19945;-77
2023/09/12 06:25:45;;;;;;;;;;;17.50;99.90;;;;;;5121297;27;19927;-77
2023/09/12 06:28:11;;;;;;;;;;;17.50;99.90;;;;;;5140718;27;20292;-76
2023/09/12 06:30:36;;;;;;;;;;;17.50;99.90;;;;;;5136058;27;19954;-77
2023/09/12 06:33:02;;;;;;;;;;;17.50;99.90;;;;;;5138590;27;19926;-77
2023/09/12 06:35:27;;;;;;;;;;;17.60;99.90;;;;;;5140603;27;19926;-76
2023/09/12 06:37:55;;;;;;;;;;;17.60;99.90;;;;;;5140210;27;19919;-76
2023/09/12 06:40:21;;;;;;;;;;;17.60;99.90;;;;;;5140879;27;19931;-77
2023/09/12 06:42:47;;;;;;;;;;;17.60;99.90;;;;;;5142217;27;19923;-77
2023/09/12 06:45:12;;;;;;;;;;;17.60;99.90;;;;;;5140220;27;19956;-76
2023/09/12 06:47:38;;;;;;;;;;;17.60;99.90;;;;;;5141937;27;19948;-76
2023/09/12 06:50:05;;;;;;;;;;;17.70;99.90;;;;;;5139800;27;19923;-76
2023/09/12 06:52:30;;;;;;;;;;;17.70;99.90;;;;;;5121262;27;19949;-76
2023/09/12 06:54:56;;;;;;;;;;;17.70;99.90;;;;;;5143233;27;19979;-77
2023/09/12 06:57:21;;;;;;;;;;;17.80;99.90;;;;;;5142932;27;19923;-77
2023/09/12 06:59:49;;;;;;;;;;;17.90;99.90;;;;;;5142357;27;19944;-76
2023/09/12 07:02:14;;;;;;;;;;;17.90;99.90;;;;;;5140534;27;19962;-76
2023/09/12 07:04:40;;;;;;;;;;;18.00;99.90;;;;;;5139988;27;19962;-76
2023/09/12 07:07:05;;;;;;;;;;;18.20;99.90;;;;;;5143031;27;19911;-77
2023/09/12 07:09:31;;;;;;;;;;;18.30;99.90;;;;;;5143924;27;19936;-75
2023/09/12 07:11:57;;;;;;;;;;;18.30;99.90;;;;;;5133506;27;19949;-76
2023/09/12 07:14:23;;;;;;;;;;;18.30;99.90;;;;;;5138875;27;19928;-77
2023/09/12 07:16:49;;;;;;;;;;;18.30;99.90;;;;;;5121544;27;19919;-77
2023/09/12 07:19:15;;;;;;;;;;;18.40;99.90;;;;;;5142342;27;20327;-77
2023/09/12 07:21:41;;;;;;;;;;;18.50;99.90;;;;;;5144450;27;19923;-77
2023/09/12 07:24:07;;;;;;;;;;;18.60;99.90;;;;;;5140109;27;19934;-76
2023/09/12 07:26:32;;;;;;;;;;;18.70;99.90;;;;;;5139287;27;19987;-75
2023/09/12 07:29:01;;;;;;;;;;;18.80;99.90;;;;;;5139293;27;19923;-75
2023/09/12 07:31:29;;;;;;;;;;;18.90;99.90;;;;;;5130322;28;19970;-77
2023/09/12 07:33:54;;;;;;;;;;;19.30;99.90;;;;;;5139877;27;19925;-75
2023/09/12 07:36:20;;;;;;;;;;;19.20;99.90;;;;;;5120648;27;19923;-75
2023/09/12 07:38:46;;;;;;;;;;;19.30;99.90;;;;;;5142901;27;19923;-76
2023/09/12 07:41:12;;;;;;;;;;;19.30;99.90;;;;;;5118690;28;19923;-75
2023/09/12 07:43:41;;;;;;;;;;;19.40;99.90;;;;;;5141721;27;20011;-76
2023/09/12 07:46:06;;;;;;;;;;;19.30;99.90;;;;;;5143085;27;20017;-76
2023/09/12 07:48:32;;;;;;;;;;;19.30;99.90;;;;;;5117180;27;20714;-76
2023/09/12 07:50:58;;;;;;;;;;;19.30;99.90;;;;;;5142727;27;19923;-76
2023/09/12 07:53:23;;;;;;;;;;;19.40;99.90;;;;;;5142535;27;20010;-76
2023/09/12 07:55:49;;;;;;;;;;;19.50;99.90;;;;;;5141024;27;19930;-76
2023/09/12 07:58:15;;;;;;;;;;;19.60;99.90;;;;;;5139161;27;19924;-76
2023/09/12 08:00:41;;;;;;;;;;;19.70;99.90;;;;;;5138707;27;19925;-76
2023/09/12 08:03:07;;;;;;;;;;;19.80;99.90;;;;;;5142584;27;19927;-76
2023/09/12 08:05:32;;;;;;;;;;;19.90;99.90;;;;;;5142577;27;20014;-76
2023/09/12 08:07:58;;;;;;;;;;;19.90;99.90;;;;;;5132821;27;19976;-75
2023/09/12 08:10:23;;;;;;;;;;;19.80;99.90;;;;;;5121338;27;20369;-76
2023/09/12 08:12:49;;;;;;;;;;;19.80;99.90;;;;;;5139234;27;20655;-76
2023/09/12 08:15:15;;;;;;;;;;;19.80;99.90;;;;;;5142383;27;19933;-76
2023/09/12 08:17:40;;;;;;;;;;;19.70;99.90;;;;;;5141993;27;19922;-75
2023/09/12 08:20:09;;;;;;;;;;;19.70;99.90;;;;;;5140211;27;19966;-76
2023/09/12 08:22:36;;;;;;;;;;;19.70;99.90;;;;;;5141658;27;19919;-75
2023/09/12 08:25:01;;;;;;;;;;;19.80;99.90;;;;;;5143219;27;19923;-76
2023/09/12 08:27:27;;;;;;;;;;;19.90;99.90;;;;;;5139202;27;19950;-76
2023/09/12 08:29:52;;;;;;;;;;;20.00;99.90;;;;;;5136399;27;20010;-76
2023/09/12 08:32:18;;;;;;;;;;;20.10;99.90;;;;;;5132549;27;20266;-76
2023/09/12 08:34:43;;;;;;;;;;;20.10;99.90;;;;;;5141497;27;20133;-77
2023/09/12 08:37:09;;;;;;;;;;;20.10;99.90;;;;;;5143142;27;20353;-76
2023/09/12 08:39:43;;;;;;;;;;;20.10;99.90;;;;;;5126413;27;19920;-77
2023/09/12 08:42:12;;;;;;;;;;;20.20;99.90;;;;;;5145539;27;19919;-76
2023/09/12 08:44:38;;;;;;;;;;;20.30;99.90;;;;;;5126270;27;19935;-76
2023/09/12 08:47:05;;;;;;;;;;;;;;;;;;5145645;27;20002;-75
2023/09/12 08:49:30;;;;;;;;;;;;;;;;;;5143332;27;19949;-76
2023/09/12 08:51:56;;;;;;;;;;;;;;;;;;5109968;27;19926;-76
2023/09/12 08:54:22;;;;;;;;;;;;;;;;;;5138776;27;19923;-76
2023/09/12 08:56:48;;;;;;;;;;;;;;;;;;5143516;27;19923;-76
2023/09/12 08:59:14;;;;;;;;;;;;;;;;;;5145781;27;19918;-76
2023/09/12 09:01:40;;;;;;;;;;;;;;;;;;5145273;27;19923;-76
2023/09/12 09:04:06;;;;;;;;;;;;;;;;;;5115805;27;20369;-77
2023/09/12 09:06:35;;;;;;;;;;;;;;;;;;5140243;27;19919;-76
2023/09/12 09:09:00;;;;;;;;;;;;;;;;;;5137492;27;19929;-76
2023/09/12 09:11:27;;;;;;;;;;;;;;;;;;5140366;27;20292;-76
2023/09/12 09:13:53;;;;;;;;;;;;;;;;;;5150523;27;19923;-76
2023/09/12 09:16:21;;;;;;;;;;;;;;;;;;5137335;27;19919;-75
2023/09/12 09:18:47;;;;;;;;;;;;;;;;;;5138500;27;19920;-76
2023/09/12 09:21:12;;;;;;;;;;;;;;;;;;5132369;27;19926;-76
2023/09/12 09:23:38;;;;;;;;;;;;;;;;;;5141432;27;19923;-76
2023/09/12 09:26:06;;;;;;;;;;;;;;;;;;5141939;27;20009;-75
2023/09/12 09:28:32;;;;;;;;;;;;;;;;;;5144223;27;20373;-75
2023/09/12 09:30:58;;;;;;;;;;;;;;;;;;5134769;27;19948;-76
2023/09/12 09:33:24;;;;;;;;;;;;;;;;;;5122952;27;20281;-76
2023/09/12 09:35:51;;;;;;;;;;;;;;;;;;5141340;27;19923;-76
2023/09/12 09:38:18;;;;;;;;;;;;;;;;;;5141962;27;19943;-77
2023/09/12 09:40:44;;;;;;;;;;;;;;;;;;5143133;27;20017;-76
2023/09/12 09:43:10;;;;;;;;;;;;;;;;;;5141156;27;19923;-76
2023/09/12 09:45:36;;;;;;;;;;;;;;;;;;5142520;27;20017;-76
2023/09/12 09:48:02;;;;;;;;;;;;;;;;;;5144772;27;20006;-76
2023/09/12 09:50:36;;;;;;;;;;;21.70;99.90;;;;;;5143414;27;19930;-76
2023/09/12 09:53:04;;;;;;;;;;;21.80;99.90;;;;;;5137041;27;19923;-75
2023/09/12 09:55:30;;;;;;;;;;;21.90;99.90;;;;;;5144433;27;20026;-75
2023/09/12 09:57:56;;;;;;;;;;;22.00;99.90;;;;;;5140955;27;19969;-76
2023/09/12 10:00:22;;;;;;;;;;;22.30;99.90;;;;;;5136038;27;19920;-75
2023/09/12 10:02:49;;;;;;;;;;;22.50;99.90;;;;;;5121749;27;20281;-76
2023/09/12 10:05:17;;;;;;;;;;;22.70;99.90;;;;;;5141039;27;19984;-77
2023/09/12 10:07:46;;;;;;;;;;;22.90;99.90;;;;;;5140672;27;19930;-75
2023/09/12 10:10:12;;;;;;;;;;;23.00;99.90;;;;;;5133797;27;19923;-76
2023/09/12 10:12:43;;;;;;;;;;;22.90;99.90;;;;;;5120263;27;19926;-76
2023/09/12 10:15:09;;;;;;;;;;;22.90;99.90;;;;;;5123102;27;20206;-75
2023/09/12 10:17:36;;;;;;;;;;;23.00;99.90;;;;;;5140777;27;19919;-78
2023/09/12 10:20:09;;;;;;;;;;;23.00;99.90;;;;;;5142068;27;19923;-76
2023/09/12 10:22:46;;;;;;;;;;;23.00;99.90;;;;;;5144260;27;19975;-76
2023/09/12 10:25:12;;;;;;;;;;;23.10;99.90;;;;;;5142525;27;20005;-75
2023/09/12 10:27:38;;;;;;;;;;;23.30;99.90;;;;;;5139943;27;20305;-76
2023/09/12 10:30:04;;;;;;;;;;;23.90;99.90;;;;;;5118868;27;19919;-76
2023/09/12 10:32:30;;;;;;;;;;;23.50;99.90;;;;;;5140589;27;19926;-76
2023/09/12 10:34:58;;;;;;;;;;;23.60;99.90;;;;;;5139851;27;19946;-77
2023/09/12 10:37:25;;;;;;;;;;;23.70;99.90;;;;;;5123252;27;20322;-77
2023/09/12 10:39:52;;;;;;;;;;;23.70;99.90;;;;;;5143050;27;19923;-77
2023/09/12 10:42:19;;;;;;;;;;;23.90;99.90;;;;;;5141971;27;19923;-76
2023/09/12 10:44:45;;;;;;;;;;;24.10;99.90;;;;;;5122783;27;19923;-77
2023/09/12 10:47:11;;;;;;;;;;;24.10;99.90;;;;;;5140873;27;20385;-77
2023/09/12 10:49:37;;;;;;;;;;;24.10;99.90;;;;;;5124020;27;19966;-77
2023/09/12 10:52:03;;;;;;;;;;;24.10;99.90;;;;;;5100370;27;20466;-77
2023/09/12 10:54:38;;;;;;;;;;;24.10;99.90;;;;;;5143608;27;19922;-77
2023/09/12 10:57:07;;;;;;;;;;;24.20;99.90;;;;;;5126172;27;19927;-76
2023/09/12 10:59:35;;;;;;;;;;;24.20;99.90;;;;;;5147996;27;19923;-76
2023/09/12 11:02:19;;;;;;;;;;;24.10;99.90;;;;;;5121371;27;19918;-77
2023/09/12 11:04:45;;;;;;;;;;;;;;;;;;5139559;27;19923;-77
2023/09/12 11:07:32;;;;;;;;;;;24.30;99.90;;;;;;5139032;27;19923;-76
2023/09/12 11:10:14;;;;;;;;;;;24.10;99.90;;;;;;5133504;27;19920;-76
2023/09/12 11:12:40;;;;;;;;;;;24.30;99.90;;;;;;5126158;27;20328;-77
2023/09/12 11:15:06;;;;;;;;;;;24.30;99.90;;;;;;5141809;27;19923;-78
2023/09/12 11:17:42;;;;;;;;;;;24.20;99.90;;;;;;5124905;27;19935;-78
2023/09/12 11:20:10;;;;;;;;;;;24.40;99.90;;;;;;5122274;27;20023;-77
2023/09/12 11:22:36;;;;;;;;;;;24.30;99.90;;;;;;5140023;27;19923;-77
2023/09/12 11:25:05;;;;;;;;;;;;;;;;;;5139700;27;19919;-77
2023/09/12 11:27:32;;;;;;;;;;;24.40;99.90;;;;;;5123451;28;20349;-78
2023/09/12 11:30:05;;;;;;;;;;;24.60;99.90;;;;;;5136469;27;19923;-78
2023/09/12 11:32:31;;;;;;;;;;;24.50;99.90;;;;;;5134309;27;19923;-77
2023/09/12 11:34:56;;;;;;;;;;;24.70;99.90;;;;;;5124498;27;19926;-77
2023/09/12 11:37:26;;;;;;;;;;;24.70;99.90;;;;;;5141950;27;20369;-78
2023/09/12 11:39:52;;;;;;;;;;;24.70;99.90;;;;;;5139404;27;19924;-77
2023/09/12 11:42:18;;;;;;;;;;;24.80;99.90;;;;;;5141897;27;19919;-77
2023/09/12 11:44:46;;;;;;;;;;;25.00;99.90;;;;;;5139159;27;19984;-77
2023/09/12 11:47:12;;;;;;;;;;;24.70;99.90;;;;;;5138939;27;19924;-77
2023/09/12 11:49:39;;;;;;;;;;;25.10;99.90;;;;;;5131245;27;19919;-77
2023/09/12 11:52:12;;;;;;;;;;;25.00;99.90;;;;;;5137512;27;19979;-78
2023/09/12 11:54:39;;;;;;;;;;;25.00;99.90;;;;;;5132270;27;19926;-77
2023/09/12 11:57:07;;;;;;;;;;;24.90;99.90;;;;;;5142039;27;19919;-77
2023/09/12 11:59:35;;;;;;;;;;;25.10;99.90;;;;;;5124609;27;19945;-78
2023/09/12 12:02:00;;;;;;;;;;;24.90;99.90;;;;;;5138758;27;19930;-77
2023/09/12 12:04:26;;;;;;;;;;;24.70;99.90;;;;;;5138329;27;19923;-76
2023/09/12 12:06:52;;;;;;;;;;;24.80;99.90;;;;;;5141133;27;19946;-75
2023/09/12 12:09:19;;;;;;;;;;;24.70;99.90;;;;;;5139987;27;19923;-75
2023/09/12 12:11:46;;;;;;;;;;;24.40;99.90;;;;;;5138588;27;19987;-76
2023/09/12 12:14:15;;;;;;;;;;;24.70;99.90;;;;;;5146311;27;20004;-76
2023/09/12 12:16:44;;;;;;;;;;;25.10;99.90;;;;;;5146921;27;19930;-76
2023/09/12 12:19:11;;;;;;;;;;;25.50;99.90;;;;;;5126194;27;19958;-76
2023/09/12 12:21:40;;;;;;;;;;;25.80;99.90;;;;;;5140763;27;20328;-75
2023/09/12 12:24:07;;;;;;;;;;;26.00;99.90;;;;;;5145386;27;19927;-77
2023/09/12 12:26:33;;;;;;;;;;;26.10;99.90;;;;;;5143032;27;19930;-77
2023/09/12 12:29:00;;;;;;;;;;;26.10;99.90;;;;;;5142484;27;20272;-76
2023/09/12 12:31:26;;;;;;;;;;;26.10;99.90;;;;;;5133996;27;19919;-76
2023/09/12 12:33:55;;;;;;;;;;;25.70;99.90;;;;;;5142492;27;19966;-77
2023/09/12 12:36:21;;;;;;;;;;;25.70;99.90;;;;;;5125293;27;20010;-77
2023/09/12 12:38:47;;;;;;;;;;;25.10;99.90;;;;;;5145877;27;20021;-77
2023/09/12 12:41:23;;;;;;;;;;;24.00;99.90;;;;;;5140549;27;19976;-77
2023/09/12 12:43:52;;;;;;;;;;;24.20;99.90;;;;;;5107827;27;19927;-77
2023/09/12 12:46:19;;;;;;;;;;;23.40;99.90;;;;;;5142811;27;19927;-76
2023/09/12 12:48:45;;;;;;;;;;;22.80;99.90;;;;;;5135927;27;19927;-76
2023/09/12 12:51:16;;;;;;;;;;;22.20;99.90;;;;;;5121343;27;19990;-76
2023/09/12 12:53:42;;;;;;;;;;;21.80;99.90;;;;;;5144084;27;19958;-76
2023/09/12 12:56:08;;;;;;;;;;;21.30;99.90;;;;;;5141999;27;20706;-75
2023/09/12 12:58:35;;;;;;;;;;;;;;;;;;5123983;27;19930;-74
2023/09/12 13:01:01;;;;;;;;;;;;;;;;;;5145359;27;19962;-74
2023/09/12 13:03:26;;;;;;;;;;;;;;;;;;5141996;27;19958;-74
2023/09/12 13:05:52;;;;;;;;;;;;;;;;;;5142463;27;19976;-74
2023/09/12 13:08:19;;;;;;;;;;;;;;;;;;5142127;27;19923;-74
2023/09/12 13:10:44;;;;;;;;;;;;;;;;;;5142116;27;19924;-74
2023/09/12 13:13:10;;;;;;;;;;;;;;;;;;5141835;27;20507;-74
2023/09/12 13:15:36;;;;;;;;;;;;;;;;;;5142172;27;20294;-73
2023/09/12 13:18:03;;;;;;;;;;;;;;;;;;5141057;27;19935;-73
2023/09/12 13:20:29;;;;;;;;;;;;;;;;;;5146058;27;19942;-73
2023/09/12 13:22:55;;;;;;;;;;;;;;;;;;5144654;27;20026;-73
2023/09/12 13:25:23;;;;;;;;;;;;;;;;;;5123733;27;19930;-74
2023/09/12 13:27:49;;;;;;;;;;;;;;;;;;5141545;27;19919;-73
2023/09/12 13:30:15;;;;;;;;;;;;;;;;;;5138213;27;20678;-74
2023/09/12 13:32:41;;;;;;;;;;;;;;;;;;5136823;27;20066;-73
2023/09/12 13:35:07;;;;;;;;;;;;;;;;;;5144050;27;20524;-74
2023/09/12 13:37:33;;;;;;;;;;;;;;;;;;5142802;27;19923;-73
2023/09/12 13:39:59;;;;;;;;;;;;;;;;;;5141230;27;20384;-74
2023/09/12 13:42:30;;;;;;;;;;;;;;;;;;5143995;27;19993;-74
2023/09/12 13:44:56;;;;;;;;;;;;;;;;;;5119750;27;19932;-75
2023/09/12 13:47:22;;;;;;;;;;;;;;;;;;5139440;27;19919;-73
2023/09/12 13:49:48;;;;;;;;;;;;;;;;;;5144312;27;19931;-74
2023/09/12 13:52:17;;;;;;;;;;;;;;;;;;5143529;27;20054;-74
2023/09/12 13:54:43;;;;;;;;;;;;;;;;;;5143110;27;19919;-75
2023/09/12 13:57:09;;;;;;;;;;;;;;;;;;5137199;27;19923;-75
2023/09/12 13:59:35;;;;;;;;;;;;;;;;;;5125858;27;20260;-75
2023/09/12 14:02:01;;;;;;;;;;;;;;;;;;5140638;27;20314;-75
2023/09/12 14:04:27;;;;;;;;;;;;;;;;;;5122689;27;20390;-75
2023/09/12 14:06:53;;;;;;;;;;;;;;;;;;5141708;27;19961;-76
2023/09/12 14:09:19;;;;;;;;;;;;;;;;;;5146052;27;19923;-76
2023/09/12 14:11:47;;;;;;;;;;;;;;;;;;5143061;27;19923;-76
2023/09/12 14:14:13;;;;;;;;;;;;;;;;;;5121782;27;20370;-75
2023/09/12 14:16:39;;;;;;;;;;;;;;;;;;5141124;27;19923;-75
2023/09/12 14:19:05;;;;;;;;;;;;;;;;;;5148551;27;20417;-75
2023/09/12 14:21:31;;;;;;;;;;;;;;;;;;5136827;27;20017;-74
2023/09/12 14:23:57;;;;;;;;;;;;;;;;;;5143561;27;20267;-76
2023/09/12 14:26:23;;;;;;;;;;;;;;;;;;5121863;27;19922;-75
2023/09/12 14:28:50;;;;;;;;;;;;;;;;;;5140318;27;19972;-75
2023/09/12 14:31:15;;;;;;;;;;;;;;;;;;5130613;27;20033;-76
2023/09/12 14:33:41;;;;;;;;;;;;;;;;;;5121651;27;20014;-75
2023/09/12 14:36:07;;;;;;;;;;;;;;;;;;5139517;27;19923;-74
2023/09/12 14:38:33;;;;;;;;;;;;;;;;;;5142254;27;19923;-74